sensor_id;sensor_type;location;lat;lon;timestamp;P1;durP1;ratioP1;P2;durP2;ratioP2
27622;SDS011;15041;45.334;5.622;2023-10-19T00:02:06;7.68;;;6.30;;
27622;SDS011;15041;45.334;5.622;2023-10-19T00:04:33;13.02;;;6.20;;
27622;SDS011;15041;45.334;5.622;2023-10-19T00:07:01;8.93;;;6.38;;
27622;SDS011;15041;45.334;5.622;2023-10-19T00:09:33;13.63;;;7.05;;
27622;SDS011;15041;45.334;5.622;2023-10-19T00:12:03;12.38;;;7.07;;
27622;SDS011;15041;45.334;5.622;2023-10-19T00:14:31;13.48;;;7.35;;
27622;SDS011;15041;45.334;5.622;2023-10-19T00:16:58;10.45;;;6.65;;
27622;SDS011;15041;45.334;5.622;2023-10-19T00:19:33;10.35;;;7.40;;
27622;SDS011;15041;45.334;5.622;2023-10-19T00:22:05;11.02;;;6.38;;
27622;SDS011;15041;45.334;5.622;2023-10-19T00:24:41;12.50;;;7.68;;
27622;SDS011;15041;45.334;5.622;2023-10-19T00:27:09;10.75;;;8.02;;
27622;SDS011;15041;45.334;5.622;2023-10-19T00:29:42;11.02;;;7.85;;
27622;SDS011;15041;45.334;5.622;2023-10-19T00:32:15;11.05;;;7.40;;
27622;SDS011;15041;45.334;5.622;2023-10-19T00:34:46;12.27;;;8.05;;
27622;SDS011;15041;45.334;5.622;2023-10-19T00:37:18;15.15;;;8.13;;
27622;SDS011;15041;45.334;5.622;2023-10-19T00:39:52;11.60;;;7.53;;
27622;SDS011;15041;45.334;5.622;2023-10-19T00:42:21;10.15;;;7.07;;
27622;SDS011;15041;45.334;5.622;2023-10-19T00:44:55;13.60;;;7.07;;
27622;SDS011;15041;45.334;5.622;2023-10-19T00:47:29;11.13;;;6.72;;
27622;SDS011;15041;45.334;5.622;2023-10-19T00:50:08;12.15;;;6.32;;
27622;SDS011;15041;45.334;5.622;2023-10-19T00:52:42;14.02;;;7.35;;
27622;SDS011;15041;45.334;5.622;2023-10-19T00:55:15;12.75;;;6.35;;
27622;SDS011;15041;45.334;5.622;2023-10-19T00:57:45;8.02;;;6.38;;
27622;SDS011;15041;45.334;5.622;2023-10-19T01:00:14;14.93;;;6.55;;
27622;SDS011;15041;45.334;5.622;2023-10-19T01:02:55;14.30;;;7.30;;
27622;SDS011;15041;45.334;5.622;2023-10-19T01:05:27;9.88;;;6.28;;
27622;SDS011;15041;45.334;5.622;2023-10-19T01:08:01;7.55;;;6.18;;
27622;SDS011;15041;45.334;5.622;2023-10-19T01:10:39;8.57;;;5.85;;
27622;SDS011;15041;45.334;5.622;2023-10-19T01:13:08;12.10;;;6.20;;
27622;SDS011;15041;45.334;5.622;2023-10-19T01:15:37;11.25;;;6.90;;
27622;SDS011;15041;45.334;5.622;2023-10-19T01:18:06;12.73;;;6.70;;
27622;SDS011;15041;45.334;5.622;2023-10-19T01:20:38;10.70;;;6.38;;
27622;SDS011;15041;45.334;5.622;2023-10-19T01:23:17;8.52;;;6.15;;
27622;SDS011;15041;45.334;5.622;2023-10-19T01:25:51;8.88;;;6.10;;
27622;SDS011;15041;45.334;5.622;2023-10-19T01:28:31;11.27;;;6.60;;
27622;SDS011;15041;45.334;5.622;2023-10-19T01:31:09;10.23;;;6.80;;
27622;SDS011;15041;45.334;5.622;2023-10-19T01:33:42;13.15;;;6.10;;
27622;SDS011;15041;45.334;5.622;2023-10-19T01:36:10;9.10;;;6.50;;
27622;SDS011;15041;45.334;5.622;2023-10-19T01:38:41;10.35;;;6.53;;
27622;SDS011;15041;45.334;5.622;2023-10-19T01:41:08;12.90;;;7.40;;
27622;SDS011;15041;45.334;5.622;2023-10-19T01:43:44;10.02;;;6.63;;
27622;SDS011;15041;45.334;5.622;2023-10-19T01:46:12;11.40;;;7.40;;
27622;SDS011;15041;45.334;5.622;2023-10-19T01:48:47;9.00;;;6.40;;
27622;SDS011;15041;45.334;5.622;2023-10-19T01:51:17;12.70;;;7.50;;
27622;SDS011;15041;45.334;5.622;2023-10-19T01:53:47;11.20;;;7.30;;
27622;SDS011;15041;45.334;5.622;2023-10-19T01:56:14;10.65;;;7.13;;
27622;SDS011;15041;45.334;5.622;2023-10-19T01:58:44;11.75;;;7.78;;
27622;SDS011;15041;45.334;5.622;2023-10-19T02:01:12;10.95;;;7.15;;
27622;SDS011;15041;45.334;5.622;2023-10-19T02:03:54;15.52;;;8.15;;
27622;SDS011;15041;45.334;5.622;2023-10-19T02:06:24;12.05;;;6.95;;
27622;SDS011;15041;45.334;5.622;2023-10-19T02:09:03;10.93;;;7.45;;
27622;SDS011;15041;45.334;5.622;2023-10-19T02:11:35;9.90;;;7.65;;
27622;SDS011;15041;45.334;5.622;2023-10-19T02:14:03;11.02;;;7.78;;
27622;SDS011;15041;45.334;5.622;2023-10-19T02:16:41;16.75;;;7.82;;
27622;SDS011;15041;45.334;5.622;2023-10-19T02:19:08;10.85;;;7.85;;
27622;SDS011;15041;45.334;5.622;2023-10-19T02:21:35;12.23;;;7.88;;
27622;SDS011;15041;45.334;5.622;2023-10-19T02:24:07;12.07;;;7.47;;
27622;SDS011;15041;45.334;5.622;2023-10-19T02:26:35;13.02;;;7.60;;
27622;SDS011;15041;45.334;5.622;2023-10-19T02:29:02;10.73;;;6.97;;
27622;SDS011;15041;45.334;5.622;2023-10-19T02:31:33;17.63;;;7.28;;
27622;SDS011;15041;45.334;5.622;2023-10-19T02:33:59;13.40;;;7.50;;
27622;SDS011;15041;45.334;5.622;2023-10-19T02:36:26;13.20;;;7.40;;
27622;SDS011;15041;45.334;5.622;2023-10-19T02:38:55;15.85;;;7.90;;
27622;SDS011;15041;45.334;5.622;2023-10-19T02:41:26;14.30;;;8.52;;
27622;SDS011;15041;45.334;5.622;2023-10-19T02:43:55;14.68;;;8.02;;
27622;SDS011;15041;45.334;5.622;2023-10-19T02:46:35;17.95;;;8.25;;
27622;SDS011;15041;45.334;5.622;2023-10-19T02:49:04;17.58;;;8.55;;
27622;SDS011;15041;45.334;5.622;2023-10-19T02:51:35;12.20;;;7.43;;
27622;SDS011;15041;45.334;5.622;2023-10-19T02:54:03;13.02;;;8.15;;
27622;SDS011;15041;45.334;5.622;2023-10-19T02:56:33;17.27;;;7.80;;
27622;SDS011;15041;45.334;5.622;2023-10-19T02:59:02;22.17;;;8.60;;
27622;SDS011;15041;45.334;5.622;2023-10-19T03:01:30;16.38;;;8.13;;
27622;SDS011;15041;45.334;5.622;2023-10-19T03:03:59;13.85;;;7.85;;
27622;SDS011;15041;45.334;5.622;2023-10-19T03:06:26;14.70;;;8.68;;
27622;SDS011;15041;45.334;5.622;2023-10-19T03:08:56;12.13;;;8.55;;
27622;SDS011;15041;45.334;5.622;2023-10-19T03:11:27;21.92;;;9.05;;
27622;SDS011;15041;45.334;5.622;2023-10-19T03:13:55;15.32;;;8.40;;
27622;SDS011;15041;45.334;5.622;2023-10-19T03:16:23;10.98;;;8.65;;
27622;SDS011;15041;45.334;5.622;2023-10-19T03:18:49;14.48;;;8.43;;
27622;SDS011;15041;45.334;5.622;2023-10-19T03:21:17;12.23;;;8.20;;
27622;SDS011;15041;45.334;5.622;2023-10-19T03:23:44;14.30;;;8.65;;
27622;SDS011;15041;45.334;5.622;2023-10-19T03:26:12;14.95;;;9.43;;
27622;SDS011;15041;45.334;5.622;2023-10-19T03:29:00;13.38;;;8.52;;
27622;SDS011;15041;45.334;5.622;2023-10-19T03:31:33;8.93;;;7.97;;
27622;SDS011;15041;45.334;5.622;2023-10-19T03:34:03;13.80;;;8.60;;
27622;SDS011;15041;45.334;5.622;2023-10-19T03:36:31;15.63;;;8.88;;
27622;SDS011;15041;45.334;5.622;2023-10-19T03:38:59;10.93;;;8.07;;
27622;SDS011;15041;45.334;5.622;2023-10-19T03:41:38;13.57;;;8.48;;
27622;SDS011;15041;45.334;5.622;2023-10-19T03:44:10;10.30;;;9.10;;
27622;SDS011;15041;45.334;5.622;2023-10-19T03:46:44;16.33;;;9.10;;
27622;SDS011;15041;45.334;5.622;2023-10-19T03:49:22;17.10;;;9.07;;
27622;SDS011;15041;45.334;5.622;2023-10-19T03:51:55;12.98;;;9.13;;
27622;SDS011;15041;45.334;5.622;2023-10-19T03:54:45;14.82;;;8.85;;
27622;SDS011;15041;45.334;5.622;2023-10-19T03:57:13;14.18;;;9.27;;
27622;SDS011;15041;45.334;5.622;2023-10-19T03:59:46;14.48;;;8.77;;
27622;SDS011;15041;45.334;5.622;2023-10-19T04:02:15;12.90;;;8.68;;
27622;SDS011;15041;45.334;5.622;2023-10-19T04:04:46;9.75;;;7.55;;
27622;SDS011;15041;45.334;5.622;2023-10-19T04:07:14;7.90;;;6.82;;
27622;SDS011;15041;45.334;5.622;2023-10-19T04:09:46;15.13;;;7.43;;
27622;SDS011;15041;45.334;5.622;2023-10-19T04:12:54;10.77;;;7.15;;
27622;SDS011;15041;45.334;5.622;2023-10-19T04:15:26;11.35;;;7.80;;
27622;SDS011;15041;45.334;5.622;2023-10-19T04:17:58;11.13;;;7.97;;
27622;SDS011;15041;45.334;5.622;2023-10-19T04:20:26;10.63;;;7.68;;
27622;SDS011;15041;45.334;5.622;2023-10-19T04:22:55;10.90;;;8.73;;
27622;SDS011;15041;45.334;5.622;2023-10-19T04:25:30;13.50;;;9.02;;
27622;SDS011;15041;45.334;5.622;2023-10-19T04:27:58;14.75;;;9.15;;
27622;SDS011;15041;45.334;5.622;2023-10-19T04:30:27;13.55;;;9.27;;
27622;SDS011;15041;45.334;5.622;2023-10-19T04:32:55;12.05;;;8.93;;
27622;SDS011;15041;45.334;5.622;2023-10-19T04:35:23;12.80;;;8.88;;
27622;SDS011;15041;45.334;5.622;2023-10-19T04:37:55;16.13;;;9.25;;
27622;SDS011;15041;45.334;5.622;2023-10-19T04:40:23;11.02;;;8.40;;
27622;SDS011;15041;45.334;5.622;2023-10-19T04:42:50;12.70;;;9.15;;
27622;SDS011;15041;45.334;5.622;2023-10-19T04:45:19;17.83;;;9.55;;
27622;SDS011;15041;45.334;5.622;2023-10-19T04:47:51;18.23;;;12.80;;
27622;SDS011;15041;45.334;5.622;2023-10-19T04:50:20;15.98;;;11.68;;
27622;SDS011;15041;45.334;5.622;2023-10-19T04:52:48;12.07;;;10.00;;
27622;SDS011;15041;45.334;5.622;2023-10-19T04:55:15;15.68;;;10.93;;
27622;SDS011;15041;45.334;5.622;2023-10-19T04:57:42;17.90;;;10.77;;
27622;SDS011;15041;45.334;5.622;2023-10-19T05:00:10;18.92;;;10.10;;
27622;SDS011;15041;45.334;5.622;2023-10-19T05:02:39;18.30;;;10.98;;
27622;SDS011;15041;45.334;5.622;2023-10-19T05:05:08;16.60;;;11.15;;
27622;SDS011;15041;45.334;5.622;2023-10-19T05:07:36;13.40;;;9.90;;
27622;SDS011;15041;45.334;5.622;2023-10-19T05:10:03;14.38;;;9.75;;
27622;SDS011;15041;45.334;5.622;2023-10-19T05:12:32;11.15;;;9.57;;
27622;SDS011;15041;45.334;5.622;2023-10-19T05:15:00;11.57;;;8.63;;
27622;SDS011;15041;45.334;5.622;2023-10-19T05:17:27;14.27;;;9.65;;
27622;SDS011;15041;45.334;5.622;2023-10-19T05:19:54;8.73;;;6.70;;
27622;SDS011;15041;45.334;5.622;2023-10-19T05:22:23;10.20;;;5.43;;
27622;SDS011;15041;45.334;5.622;2023-10-19T05:24:54;5.18;;;4.40;;
27622;SDS011;15041;45.334;5.622;2023-10-19T05:27:22;9.40;;;5.20;;
27622;SDS011;15041;45.334;5.622;2023-10-19T05:29:49;7.75;;;4.95;;
27622;SDS011;15041;45.334;5.622;2023-10-19T05:32:17;4.90;;;4.47;;
27622;SDS011;15041;45.334;5.622;2023-10-19T05:34:44;4.97;;;4.07;;
27622;SDS011;15041;45.334;5.622;2023-10-19T05:37:12;8.25;;;4.05;;
27622;SDS011;15041;45.334;5.622;2023-10-19T05:39:42;5.90;;;3.60;;
27622;SDS011;15041;45.334;5.622;2023-10-19T05:42:10;4.72;;;4.32;;
27622;SDS011;15041;45.334;5.622;2023-10-19T05:44:38;4.75;;;3.40;;
27622;SDS011;15041;45.334;5.622;2023-10-19T05:47:05;8.65;;;4.13;;
27622;SDS011;15041;45.334;5.622;2023-10-19T05:49:33;4.43;;;4.00;;
27622;SDS011;15041;45.334;5.622;2023-10-19T05:52:00;8.57;;;4.97;;
27622;SDS011;15041;45.334;5.622;2023-10-19T05:54:28;11.25;;;4.82;;
27622;SDS011;15041;45.334;5.622;2023-10-19T05:56:57;10.30;;;5.72;;
27622;SDS011;15041;45.334;5.622;2023-10-19T05:59:25;11.13;;;7.13;;
27622;SDS011;15041;45.334;5.622;2023-10-19T06:01:54;16.70;;;9.05;;
27622;SDS011;15041;45.334;5.622;2023-10-19T06:04:21;18.20;;;9.55;;
27622;SDS011;15041;45.334;5.622;2023-10-19T06:06:49;19.80;;;9.90;;
27622;SDS011;15041;45.334;5.622;2023-10-19T06:09:17;11.98;;;9.43;;
27622;SDS011;15041;45.334;5.622;2023-10-19T06:11:46;12.07;;;9.48;;
27622;SDS011;15041;45.334;5.622;2023-10-19T06:14:17;18.50;;;10.63;;
27622;SDS011;15041;45.334;5.622;2023-10-19T06:16:44;12.88;;;9.63;;
27622;SDS011;15041;45.334;5.622;2023-10-19T06:19:12;11.70;;;7.50;;
27622;SDS011;15041;45.334;5.622;2023-10-19T06:21:41;14.18;;;8.55;;
27622;SDS011;15041;45.334;5.622;2023-10-19T06:24:08;12.13;;;8.32;;
27622;SDS011;15041;45.334;5.622;2023-10-19T06:26:40;11.13;;;8.50;;
27622;SDS011;15041;45.334;5.622;2023-10-19T06:29:08;11.18;;;9.27;;
27622;SDS011;15041;45.334;5.622;2023-10-19T06:31:37;13.35;;;9.30;;
27622;SDS011;15041;45.334;5.622;2023-10-19T06:34:04;13.60;;;9.23;;
27622;SDS011;15041;45.334;5.622;2023-10-19T06:36:31;15.50;;;7.65;;
27622;SDS011;15041;45.334;5.622;2023-10-19T06:38:59;12.70;;;7.53;;
27622;SDS011;15041;45.334;5.622;2023-10-19T06:41:31;9.98;;;7.35;;
27622;SDS011;15041;45.334;5.622;2023-10-19T06:44:00;16.30;;;8.23;;
27622;SDS011;15041;45.334;5.622;2023-10-19T06:46:27;11.68;;;8.73;;
27622;SDS011;15041;45.334;5.622;2023-10-19T06:48:56;25.00;;;8.45;;
27622;SDS011;15041;45.334;5.622;2023-10-19T06:51:25;13.68;;;7.93;;
27622;SDS011;15041;45.334;5.622;2023-10-19T06:53:53;12.00;;;8.70;;
27622;SDS011;15041;45.334;5.622;2023-10-19T06:56:21;10.32;;;8.32;;
27622;SDS011;15041;45.334;5.622;2023-10-19T06:58:48;11.40;;;7.63;;
27622;SDS011;15041;45.334;5.622;2023-10-19T07:01:15;9.95;;;8.52;;
27622;SDS011;15041;45.334;5.622;2023-10-19T07:03:44;9.68;;;7.13;;
27622;SDS011;15041;45.334;5.622;2023-10-19T07:06:13;9.07;;;6.57;;
27622;SDS011;15041;45.334;5.622;2023-10-19T07:08:40;13.52;;;6.97;;
27622;SDS011;15041;45.334;5.622;2023-10-19T07:11:07;9.32;;;8.20;;
27622;SDS011;15041;45.334;5.622;2023-10-19T07:13:34;13.50;;;8.25;;
27622;SDS011;15041;45.334;5.622;2023-10-19T07:16:01;14.50;;;7.75;;
27622;SDS011;15041;45.334;5.622;2023-10-19T07:18:29;9.57;;;6.93;;
27622;SDS011;15041;45.334;5.622;2023-10-19T07:20:56;8.70;;;7.38;;
27622;SDS011;15041;45.334;5.622;2023-10-19T07:23:30;8.93;;;6.55;;
27622;SDS011;15041;45.334;5.622;2023-10-19T07:25:57;13.30;;;7.75;;
27622;SDS011;15041;45.334;5.622;2023-10-19T07:28:26;10.30;;;7.30;;
27622;SDS011;15041;45.334;5.622;2023-10-19T07:30:53;10.90;;;7.43;;
27622;SDS011;15041;45.334;5.622;2023-10-19T07:33:21;9.00;;;6.45;;
27622;SDS011;15041;45.334;5.622;2023-10-19T07:35:49;8.45;;;5.75;;
27622;SDS011;15041;45.334;5.622;2023-10-19T07:38:21;10.43;;;6.82;;
27622;SDS011;15041;45.334;5.622;2023-10-19T07:40:49;9.80;;;6.13;;
27622;SDS011;15041;45.334;5.622;2023-10-19T07:43:18;10.90;;;6.20;;
27622;SDS011;15041;45.334;5.622;2023-10-19T07:45:46;9.43;;;6.40;;
27622;SDS011;15041;45.334;5.622;2023-10-19T07:48:14;11.68;;;5.60;;
27622;SDS011;15041;45.334;5.622;2023-10-19T07:50:42;10.52;;;6.28;;
27622;SDS011;15041;45.334;5.622;2023-10-19T07:53:10;10.00;;;6.35;;
27622;SDS011;15041;45.334;5.622;2023-10-19T07:55:37;9.98;;;6.03;;
27622;SDS011;15041;45.334;5.622;2023-10-19T07:58:06;11.98;;;6.18;;
27622;SDS011;15041;45.334;5.622;2023-10-19T08:00:34;13.05;;;6.90;;
27622;SDS011;15041;45.334;5.622;2023-10-19T08:03:01;8.02;;;6.75;;
27622;SDS011;15041;45.334;5.622;2023-10-19T08:05:29;11.18;;;6.85;;
27622;SDS011;15041;45.334;5.622;2023-10-19T08:07:56;14.63;;;6.95;;
27622;SDS011;15041;45.334;5.622;2023-10-19T08:10:25;10.68;;;6.93;;
27622;SDS011;15041;45.334;5.622;2023-10-19T08:12:53;11.95;;;6.90;;
27622;SDS011;15041;45.334;5.622;2023-10-19T08:15:24;6.72;;;6.03;;
27622;SDS011;15041;45.334;5.622;2023-10-19T08:17:51;9.00;;;6.78;;
27622;SDS011;15041;45.334;5.622;2023-10-19T08:20:20;10.88;;;6.72;;
27622;SDS011;15041;45.334;5.622;2023-10-19T08:22:56;9.70;;;7.50;;
27622;SDS011;15041;45.334;5.622;2023-10-19T08:25:24;13.02;;;6.95;;
27622;SDS011;15041;45.334;5.622;2023-10-19T08:27:53;11.98;;;7.95;;
27622;SDS011;15041;45.334;5.622;2023-10-19T08:30:23;10.73;;;6.63;;
27622;SDS011;15041;45.334;5.622;2023-10-19T08:32:52;11.10;;;7.20;;
27622;SDS011;15041;45.334;5.622;2023-10-19T08:35:19;10.15;;;7.22;;
27622;SDS011;15041;45.334;5.622;2023-10-19T08:37:50;10.80;;;6.03;;
27622;SDS011;15041;45.334;5.622;2023-10-19T08:40:18;11.23;;;6.28;;
27622;SDS011;15041;45.334;5.622;2023-10-19T08:42:47;15.07;;;6.32;;
27622;SDS011;15041;45.334;5.622;2023-10-19T08:45:14;11.77;;;5.97;;
27622;SDS011;15041;45.334;5.622;2023-10-19T08:47:47;14.02;;;5.78;;
27622;SDS011;15041;45.334;5.622;2023-10-19T08:50:21;13.02;;;5.82;;
27622;SDS011;15041;45.334;5.622;2023-10-19T08:52:50;9.27;;;5.15;;
27622;SDS011;15041;45.334;5.622;2023-10-19T08:55:20;10.88;;;5.40;;
27622;SDS011;15041;45.334;5.622;2023-10-19T08:57:47;10.45;;;5.05;;
27622;SDS011;15041;45.334;5.622;2023-10-19T09:00:16;13.35;;;5.75;;
27622;SDS011;15041;45.334;5.622;2023-10-19T09:02:46;9.35;;;4.32;;
27622;SDS011;15041;45.334;5.622;2023-10-19T09:05:13;5.00;;;4.07;;
27622;SDS011;15041;45.334;5.622;2023-10-19T09:07:48;8.27;;;4.05;;
27622;SDS011;15041;45.334;5.622;2023-10-19T09:10:20;8.82;;;4.30;;
27622;SDS011;15041;45.334;5.622;2023-10-19T09:12:57;7.22;;;4.13;;
27622;SDS011;15041;45.334;5.622;2023-10-19T09:15:27;9.02;;;4.45;;
27622;SDS011;15041;45.334;5.622;2023-10-19T09:17:57;5.25;;;4.72;;
27622;SDS011;15041;45.334;5.622;2023-10-19T09:20:24;13.07;;;5.47;;
27622;SDS011;15041;45.334;5.622;2023-10-19T09:22:53;7.22;;;5.10;;
27622;SDS011;15041;45.334;5.622;2023-10-19T09:25:22;12.82;;;5.82;;
27622;SDS011;15041;45.334;5.622;2023-10-19T09:27:49;7.63;;;4.82;;
27622;SDS011;15041;45.334;5.622;2023-10-19T09:30:17;9.75;;;5.13;;
27622;SDS011;15041;45.334;5.622;2023-10-19T09:32:48;9.20;;;5.63;;
27622;SDS011;15041;45.334;5.622;2023-10-19T09:35:16;9.55;;;5.18;;
27622;SDS011;15041;45.334;5.622;2023-10-19T09:37:45;7.25;;;4.65;;
27622;SDS011;15041;45.334;5.622;2023-10-19T09:40:13;11.43;;;5.97;;
27622;SDS011;15041;45.334;5.622;2023-10-19T09:42:42;9.88;;;5.22;;
27622;SDS011;15041;45.334;5.622;2023-10-19T09:45:14;9.07;;;5.53;;
27622;SDS011;15041;45.334;5.622;2023-10-19T09:47:47;5.93;;;4.75;;
27622;SDS011;15041;45.334;5.622;2023-10-19T09:50:18;11.45;;;6.30;;
27622;SDS011;15041;45.334;5.622;2023-10-19T09:52:45;10.30;;;5.30;;
27622;SDS011;15041;45.334;5.622;2023-10-19T09:55:15;15.82;;;6.80;;
27622;SDS011;15041;45.334;5.622;2023-10-19T09:57:50;7.68;;;5.28;;
27622;SDS011;15041;45.334;5.622;2023-10-19T10:00:22;16.65;;;6.10;;
27622;SDS011;15041;45.334;5.622;2023-10-19T10:02:50;8.23;;;5.18;;
27622;SDS011;15041;45.334;5.622;2023-10-19T10:08:30;10.40;;;5.85;;
27622;SDS011;15041;45.334;5.622;2023-10-19T10:11:21;9.02;;;4.97;;
27622;SDS011;15041;45.334;5.622;2023-10-19T10:13:52;10.75;;;5.40;;
27622;SDS011;15041;45.334;5.622;2023-10-19T10:16:21;9.90;;;5.10;;
27622;SDS011;15041;45.334;5.622;2023-10-19T10:18:54;10.30;;;4.85;;
27622;SDS011;15041;45.334;5.622;2023-10-19T10:21:26;11.82;;;5.30;;
27622;SDS011;15041;45.334;5.622;2023-10-19T10:23:55;10.30;;;4.60;;
27622;SDS011;15041;45.334;5.622;2023-10-19T10:26:25;13.35;;;5.55;;
27622;SDS011;15041;45.334;5.622;2023-10-19T10:29:08;6.47;;;4.60;;
27622;SDS011;15041;45.334;5.622;2023-10-19T10:31:41;8.57;;;4.78;;
27622;SDS011;15041;45.334;5.622;2023-10-19T10:34:09;8.88;;;5.03;;
27622;SDS011;15041;45.334;5.622;2023-10-19T10:39:26;8.32;;;4.68;;
27622;SDS011;15041;45.334;5.622;2023-10-19T10:41:56;12.45;;;5.05;;
27622;SDS011;15041;45.334;5.622;2023-10-19T10:44:37;5.90;;;4.22;;
27622;SDS011;15041;45.334;5.622;2023-10-19T10:47:06;8.55;;;4.07;;
27622;SDS011;15041;45.334;5.622;2023-10-19T10:52:29;10.98;;;4.85;;
27622;SDS011;15041;45.334;5.622;2023-10-19T10:55:06;4.55;;;3.95;;
27622;SDS011;15041;45.334;5.622;2023-10-19T10:57:36;10.15;;;4.18;;
27622;SDS011;15041;45.334;5.622;2023-10-19T11:00:04;11.80;;;4.50;;
27622;SDS011;15041;45.334;5.622;2023-10-19T11:02:35;7.18;;;4.00;;
27622;SDS011;15041;45.334;5.622;2023-10-19T11:05:05;4.43;;;3.47;;
27622;SDS011;15041;45.334;5.622;2023-10-19T11:07:38;9.48;;;3.47;;
27622;SDS011;15041;45.334;5.622;2023-10-19T11:10:05;4.55;;;2.90;;
27622;SDS011;15041;45.334;5.622;2023-10-19T11:12:35;7.63;;;3.17;;
27622;SDS011;15041;45.334;5.622;2023-10-19T11:15:03;5.38;;;3.10;;
27622;SDS011;15041;45.334;5.622;2023-10-19T11:17:41;10.27;;;2.83;;
27622;SDS011;15041;45.334;5.622;2023-10-19T11:20:09;3.28;;;2.97;;
27622;SDS011;15041;45.334;5.622;2023-10-19T11:22:49;7.95;;;2.78;;
27622;SDS011;15041;45.334;5.622;2023-10-19T11:25:18;4.60;;;2.60;;
27622;SDS011;15041;45.334;5.622;2023-10-19T11:27:46;3.83;;;2.83;;
27622;SDS011;15041;45.334;5.622;2023-10-19T11:30:13;4.82;;;2.55;;
27622;SDS011;15041;45.334;5.622;2023-10-19T11:32:49;7.35;;;2.80;;
27622;SDS011;15041;45.334;5.622;2023-10-19T11:35:18;6.00;;;3.10;;
27622;SDS011;15041;45.334;5.622;2023-10-19T11:37:46;12.02;;;3.85;;
27622;SDS011;15041;45.334;5.622;2023-10-19T11:40:15;10.18;;;3.60;;
27622;SDS011;15041;45.334;5.622;2023-10-19T11:42:44;4.53;;;2.45;;
27622;SDS011;15041;45.334;5.622;2023-10-19T11:45:12;4.38;;;2.30;;
27622;SDS011;15041;45.334;5.622;2023-10-19T11:47:39;5.32;;;2.20;;
27622;SDS011;15041;45.334;5.622;2023-10-19T11:50:07;5.15;;;2.38;;
27622;SDS011;15041;45.334;5.622;2023-10-19T11:52:37;6.22;;;2.30;;
27622;SDS011;15041;45.334;5.622;2023-10-19T11:55:05;4.55;;;2.38;;
27622;SDS011;15041;45.334;5.622;2023-10-19T11:57:35;6.68;;;2.53;;
27622;SDS011;15041;45.334;5.622;2023-10-19T12:00:02;4.05;;;2.10;;
27622;SDS011;15041;45.334;5.622;2023-10-19T12:02:34;2.13;;;1.85;;
27622;SDS011;15041;45.334;5.622;2023-10-19T12:05:04;1.98;;;1.55;;
27622;SDS011;15041;45.334;5.622;2023-10-19T12:07:35;4.63;;;2.20;;
27622;SDS011;15041;45.334;5.622;2023-10-19T12:10:03;2.10;;;1.80;;
27622;SDS011;15041;45.334;5.622;2023-10-19T12:12:31;6.55;;;1.60;;
27622;SDS011;15041;45.334;5.622;2023-10-19T12:15:00;2.13;;;1.33;;
27622;SDS011;15041;45.334;5.622;2023-10-19T12:17:28;1.45;;;1.15;;
27622;SDS011;15041;45.334;5.622;2023-10-19T12:19:55;1.10;;;1.00;;
27622;SDS011;15041;45.334;5.622;2023-10-19T12:22:23;9.32;;;1.83;;
27622;SDS011;15041;45.334;5.622;2023-10-19T12:24:53;0.98;;;0.90;;
27622;SDS011;15041;45.334;5.622;2023-10-19T12:27:22;2.35;;;1.25;;
27622;SDS011;15041;45.334;5.622;2023-10-19T12:29:50;3.55;;;1.27;;
27622;SDS011;15041;45.334;5.622;2023-10-19T12:32:19;1.85;;;1.10;;
27622;SDS011;15041;45.334;5.622;2023-10-19T12:34:46;2.67;;;1.40;;
27622;SDS011;15041;45.334;5.622;2023-10-19T12:37:18;4.18;;;1.30;;
27622;SDS011;15041;45.334;5.622;2023-10-19T12:39:45;1.10;;;1.00;;
27622;SDS011;15041;45.334;5.622;2023-10-19T12:42:14;1.02;;;1.02;;
27622;SDS011;15041;45.334;5.622;2023-10-19T12:44:41;1.63;;;1.05;;
27622;SDS011;15041;45.334;5.622;2023-10-19T12:47:09;2.22;;;1.02;;
27622;SDS011;15041;45.334;5.622;2023-10-19T12:49:40;6.85;;;1.25;;
27622;SDS011;15041;45.334;5.622;2023-10-19T12:52:07;1.67;;;1.00;;
27622;SDS011;15041;45.334;5.622;2023-10-19T12:54:35;0.90;;;0.90;;
27622;SDS011;15041;45.334;5.622;2023-10-19T12:57:03;1.52;;;1.30;;
27622;SDS011;15041;45.334;5.622;2023-10-19T12:59:32;1.20;;;1.10;;
27622;SDS011;15041;45.334;5.622;2023-10-19T13:02:02;0.80;;;0.80;;
27622;SDS011;15041;45.334;5.622;2023-10-19T13:04:30;3.65;;;1.00;;
27622;SDS011;15041;45.334;5.622;2023-10-19T13:06:58;1.27;;;1.13;;
27622;SDS011;15041;45.334;5.622;2023-10-19T13:09:28;0.93;;;0.90;;
27622;SDS011;15041;45.334;5.622;2023-10-19T13:11:58;1.23;;;1.20;;
27622;SDS011;15041;45.334;5.622;2023-10-19T13:14:25;0.93;;;0.93;;
27622;SDS011;15041;45.334;5.622;2023-10-19T13:16:52;4.60;;;1.02;;
27622;SDS011;15041;45.334;5.622;2023-10-19T13:19:20;0.93;;;0.90;;
27622;SDS011;15041;45.334;5.622;2023-10-19T13:21:49;3.80;;;1.38;;
27622;SDS011;15041;45.334;5.622;2023-10-19T13:24:19;1.17;;;1.10;;
27622;SDS011;15041;45.334;5.622;2023-10-19T13:26:47;0.90;;;0.90;;
27622;SDS011;15041;45.334;5.622;2023-10-19T13:29:14;0.98;;;0.85;;
27622;SDS011;15041;45.334;5.622;2023-10-19T13:31:42;2.25;;;1.23;;
27622;SDS011;15041;45.334;5.622;2023-10-19T13:34:15;2.70;;;1.30;;
27622;SDS011;15041;45.334;5.622;2023-10-19T13:36:42;1.85;;;1.20;;
27622;SDS011;15041;45.334;5.622;2023-10-19T13:39:10;1.65;;;0.98;;
27622;SDS011;15041;45.334;5.622;2023-10-19T13:41:43;2.70;;;1.15;;
27622;SDS011;15041;45.334;5.622;2023-10-19T13:44:10;4.30;;;0.98;;
27622;SDS011;15041;45.334;5.622;2023-10-19T13:46:38;1.23;;;1.00;;
27622;SDS011;15041;45.334;5.622;2023-10-19T13:49:05;2.15;;;1.65;;
27622;SDS011;15041;45.334;5.622;2023-10-19T13:51:35;0.90;;;0.90;;
27622;SDS011;15041;45.334;5.622;2023-10-19T13:54:02;1.73;;;1.10;;
27622;SDS011;15041;45.334;5.622;2023-10-19T13:56:29;3.70;;;1.00;;
27622;SDS011;15041;45.334;5.622;2023-10-19T13:58:57;2.90;;;1.13;;
27622;SDS011;15041;45.334;5.622;2023-10-19T14:01:25;2.92;;;1.30;;
27622;SDS011;15041;45.334;5.622;2023-10-19T14:03:54;1.10;;;1.00;;
27622;SDS011;15041;45.334;5.622;2023-10-19T14:06:21;3.22;;;1.15;;
27622;SDS011;15041;45.334;5.622;2023-10-19T14:08:50;1.25;;;1.17;;
27622;SDS011;15041;45.334;5.622;2023-10-19T14:11:18;2.28;;;1.17;;
27622;SDS011;15041;45.334;5.622;2023-10-19T14:13:47;3.33;;;1.15;;
27622;SDS011;15041;45.334;5.622;2023-10-19T14:16:17;1.55;;;1.30;;
27622;SDS011;15041;45.334;5.622;2023-10-19T14:18:44;1.65;;;1.10;;
27622;SDS011;15041;45.334;5.622;2023-10-19T14:21:13;1.45;;;1.30;;
27622;SDS011;15041;45.334;5.622;2023-10-19T14:23:41;1.35;;;1.20;;
27622;SDS011;15041;45.334;5.622;2023-10-19T14:26:10;1.60;;;1.13;;
27622;SDS011;15041;45.334;5.622;2023-10-19T14:28:38;2.95;;;0.90;;
27622;SDS011;15041;45.334;5.622;2023-10-19T14:31:06;1.35;;;1.10;;
27622;SDS011;15041;45.334;5.622;2023-10-19T14:33:35;1.48;;;1.00;;
27622;SDS011;15041;45.334;5.622;2023-10-19T14:36:03;2.65;;;1.00;;
27622;SDS011;15041;45.334;5.622;2023-10-19T14:38:31;1.20;;;1.08;;
27622;SDS011;15041;45.334;5.622;2023-10-19T14:40:58;6.93;;;1.20;;
27622;SDS011;15041;45.334;5.622;2023-10-19T14:43:26;1.35;;;1.10;;
27622;SDS011;15041;45.334;5.622;2023-10-19T14:45:54;2.85;;;1.10;;
27622;SDS011;15041;45.334;5.622;2023-10-19T14:48:22;1.20;;;1.05;;
27622;SDS011;15041;45.334;5.622;2023-10-19T14:50:51;1.00;;;1.00;;
27622;SDS011;15041;45.334;5.622;2023-10-19T14:53:19;3.95;;;1.08;;
27622;SDS011;15041;45.334;5.622;2023-10-19T14:55:47;3.42;;;1.40;;
27622;SDS011;15041;45.334;5.622;2023-10-19T14:58:14;2.13;;;1.45;;
27622;SDS011;15041;45.334;5.622;2023-10-19T15:00:41;2.67;;;0.95;;
27622;SDS011;15041;45.334;5.622;2023-10-19T15:03:10;1.15;;;0.98;;
27622;SDS011;15041;45.334;5.622;2023-10-19T15:05:39;1.27;;;1.00;;